Time;durP1;ratioP1;P1;durP2;ratioP2;P2;SDS_P1;SDS_P2;PMS_P1;PMS_P2;Temp;Humidity;BMP_temperature;BMP_pressure;BME280_temperature;BME280_humidity;BME280_pressure;Samples;Min_cycle;Max_cycle;Signal;HPM_P1;HPM_P2
2022/07/12 00:01:07;;;;;;;1.45;1.13;;;16.90;84.70;;;;;;5096100;28;20032;-81
2022/07/12 00:03:33;;;;;;;1.13;1.00;;;16.90;85.10;;;;;;5096489;28;20431;-81
2022/07/12 00:06:00;;;;;;;3.05;1.13;;;16.90;85.40;;;;;;5096184;28;20025;-81
2022/07/12 00:08:25;;;;;;;1.48;0.82;;;16.80;85.90;;;;;;5096655;28;20035;-81
2022/07/12 00:10:51;;;;;;;1.38;0.75;;;16.80;86.30;;;;;;5096414;28;20024;-81
2022/07/12 00:13:17;;;;;;;1.10;0.88;;;16.80;86.60;;;;;;5095969;28;20032;-80
2022/07/12 00:15:43;;;;;;;0.85;0.85;;;16.80;87.00;;;;;;5096354;28;20415;-82
2022/07/12 00:18:10;;;;;;;0.98;0.70;;;16.80;87.10;;;;;;5094439;28;20377;-81
2022/07/12 00:20:36;;;;;;;3.75;0.80;;;16.80;87.30;;;;;;5096482;28;20449;-81
2022/07/12 00:23:02;;;;;;;0.98;0.88;;;16.70;87.20;;;;;;5095939;28;20118;-82
2022/07/12 00:25:28;;;;;;;0.70;0.70;;;16.70;87.20;;;;;;5096091;28;20150;-81
2022/07/12 00:27:53;;;;;;;2.33;0.90;;;16.70;87.00;;;;;;5094690;28;20031;-81
2022/07/12 00:30:19;;;;;;;0.93;0.85;;;16.70;86.70;;;;;;5094945;28;20044;-80
2022/07/12 00:32:45;;;;;;;3.28;0.90;;;16.70;86.90;;;;;;5095874;28;20032;-81
2022/07/12 00:35:11;;;;;;;0.82;0.70;;;16.70;87.00;;;;;;5095731;28;20028;-80
2022/07/12 00:37:37;;;;;;;1.20;0.90;;;16.70;86.90;;;;;;5095383;28;20043;-80
2022/07/12 00:40:08;;;;;;;2.92;0.93;;;16.70;86.90;;;;;;5095401;28;20095;-79
2022/07/12 00:42:34;;;;;;;;;;;16.70;87.10;;;;;;5094902;28;20495;-80
2022/07/12 00:45:01;;;;;;;2.78;0.88;;;16.60;87.00;;;;;;5095817;28;19910;-80
2022/07/12 00:47:38;;;;;;;3.20;1.00;;;16.60;87.10;;;;;;5095383;28;20353;-80
2022/07/12 00:50:14;;;;;;;1.02;0.90;;;16.60;87.00;;;;;;5095438;28;20028;-80
2022/07/12 00:52:41;;;;;;;1.25;0.80;;;16.60;87.20;;;;;;5095592;28;20060;-81
2022/07/12 00:55:08;;;;;;;0.88;0.88;;;16.60;87.10;;;;;;5094876;28;20560;-80
2022/07/12 00:57:35;;;;;;;1.25;0.90;;;16.60;87.20;;;;;;5095515;28;20103;-81
2022/07/12 01:00:02;;;;;;;0.80;0.80;;;16.60;87.30;;;;;;5095545;28;20110;-80
2022/07/12 01:02:28;;;;;;;0.82;0.82;;;16.60;87.60;;;;;;5095716;28;20119;-81
2022/07/12 01:04:55;;;;;;;1.73;1.10;;;16.60;87.80;;;;;;5095396;28;20028;-80
2022/07/12 01:07:24;;;;;;;1.35;0.70;;;16.60;87.90;;;;;;5094710;28;20077;-80
2022/07/12 01:09:51;;;;;;;1.05;0.95;;;16.50;88.30;;;;;;5095183;28;20085;-80
2022/07/12 01:12:18;;;;;;;1.17;0.85;;;16.50;88.80;;;;;;5095052;28;20055;-81
2022/07/12 01:14:44;;;;;;;1.38;0.93;;;16.50;89.20;;;;;;5094983;28;20028;-80
2022/07/12 01:17:11;;;;;;;2.38;0.90;;;16.50;89.60;;;;;;5094701;28;20152;-80
2022/07/12 01:19:38;;;;;;;0.95;0.90;;;16.50;89.60;;;;;;5095041;28;20036;-80
2022/07/12 01:22:08;;;;;;;1.00;0.90;;;16.50;89.80;;;;;;5094930;28;20028;-79
2022/07/12 01:24:34;;;;;;;1.00;0.80;;;16.50;90.00;;;;;;5095096;28;20077;-80
2022/07/12 01:27:00;;;;;;;1.33;0.95;;;16.40;90.10;;;;;;5094991;28;20057;-80
2022/07/12 01:29:26;;;;;;;1.10;1.00;;;16.40;90.30;;;;;;5092627;28;20055;-80
2022/07/12 01:31:52;;;;;;;3.92;1.10;;;16.40;90.60;;;;;;5095058;28;20044;-82
2022/07/12 01:34:20;;;;;;;1.05;0.85;;;16.40;90.80;;;;;;5094680;28;20028;-82
2022/07/12 01:36:46;;;;;;;0.82;0.80;;;16.40;90.90;;;;;;5095071;28;20105;-80
2022/07/12 01:39:11;;;;;;;1.95;0.88;;;16.40;90.90;;;;;;5094316;28;20081;-80
2022/07/12 01:41:38;;;;;;;0.90;0.90;;;16.40;91.00;;;;;;5094745;28;20031;-80
2022/07/12 01:44:03;;;;;;;0.93;0.90;;;16.40;91.10;;;;;;5094713;28;20027;-81
2022/07/12 01:46:29;;;;;;;0.80;0.80;;;16.40;91.30;;;;;;5093042;28;20024;-80
2022/07/12 01:48:56;;;;;;;0.70;0.70;;;16.30;91.30;;;;;;5094569;28;20081;-81
2022/07/12 01:51:21;;;;;;;0.70;0.70;;;16.30;91.40;;;;;;5093101;28;20079;-81
2022/07/12 01:53:47;;;;;;;4.30;0.80;;;16.30;91.60;;;;;;5094229;28;20498;-80
2022/07/12 01:56:14;;;;;;;0.85;0.80;;;16.30;91.60;;;;;;5094315;28;20136;-81
2022/07/12 01:58:40;;;;;;;0.60;0.60;;;16.30;91.70;;;;;;5094276;28;20365;-81
2022/07/12 02:01:06;;;;;;;0.98;0.88;;;16.30;91.80;;;;;;5094485;28;20024;-81
2022/07/12 02:03:36;;;;;;;1.05;0.80;;;16.30;91.80;;;;;;5093055;28;20104;-81
2022/07/12 02:06:01;;;;;;;1.35;1.25;;;16.30;91.90;;;;;;5094883;28;20020;-81
2022/07/12 02:08:27;;;;;;;1.05;0.80;;;16.30;92.00;;;;;;5093786;28;20418;-81
2022/07/12 02:10:52;;;;;;;0.82;0.82;;;16.30;92.10;;;;;;5094715;28;20049;-82
2022/07/12 02:13:18;;;;;;;1.05;0.80;;;16.30;92.20;;;;;;5093737;28;20036;-81
2022/07/12 02:15:44;;;;;;;1.00;0.90;;;16.30;92.30;;;;;;5093991;28;20107;-82
2022/07/12 02:18:09;;;;;;;1.92;0.90;;;16.30;92.40;;;;;;5093725;28;20362;-82
2022/07/12 02:20:35;;;;;;;1.42;0.82;;;16.30;92.50;;;;;;5094397;28;20043;-82
2022/07/12 02:23:00;;;;;;;0.90;0.80;;;16.30;92.50;;;;;;5092975;28;20107;-81
2022/07/12 02:25:26;;;;;;;1.00;0.90;;;16.30;92.60;;;;;;5093697;28;20487;-82
2022/07/12 02:27:52;;;;;;;1.45;0.82;;;16.20;92.60;;;;;;5094323;28;20132;-81
2022/07/12 02:30:17;;;;;;;1.75;0.80;;;16.20;92.90;;;;;;5093838;28;20048;-81
2022/07/12 02:32:43;;;;;;;0.80;0.80;;;16.20;92.90;;;;;;5093914;28;20032;-80
2022/07/12 02:35:08;;;;;;;1.05;0.80;;;16.20;93.00;;;;;;5093415;28;20031;-81
2022/07/12 02:37:34;;;;;;;1.90;0.93;;;16.20;93.20;;;;;;5093975;28;20552;-82
2022/07/12 02:42:44;;;;;;;0.70;0.70;;;16.30;93.10;;;;;;5093789;28;20498;-82
2022/07/12 02:45:10;;;;;;;1.85;0.88;;;16.30;93.30;;;;;;5093554;28;20024;-81
2022/07/12 02:47:40;;;;;;;1.25;1.15;;;16.20;93.30;;;;;;5093586;28;20028;-82
2022/07/12 02:50:09;;;;;;;1.17;0.73;;;16.20;93.40;;;;;;5092396;28;20465;-82
2022/07/12 02:52:34;;;;;;;0.90;0.90;;;16.20;93.40;;;;;;5093106;28;20063;-82
2022/07/12 02:55:00;;;;;;;1.67;0.90;;;16.20;93.50;;;;;;5093748;28;20063;-81
2022/07/12 02:57:26;;;;;;;0.82;0.80;;;16.20;93.60;;;;;;5093185;28;20036;-81
2022/07/12 02:59:51;;;;;;;1.00;0.90;;;16.20;93.70;;;;;;5093674;28;20476;-81
2022/07/12 03:02:17;;;;;;;1.10;0.80;;;16.20;93.90;;;;;;5092187;28;20103;-81
2022/07/12 03:04:42;;;;;;;1.50;1.10;;;16.20;93.90;;;;;;5093432;28;20063;-81
2022/07/12 03:07:08;;;;;;;0.90;0.75;;;16.10;94.00;;;;;;5092834;28;20383;-81
2022/07/12 03:09:35;;;;;;;1.02;0.77;;;16.10;94.30;;;;;;5092282;28;20024;-81
2022/07/12 03:12:00;;;;;;;1.05;0.95;;;16.10;94.40;;;;;;5091731;28;20400;-81
2022/07/12 03:14:26;;;;;;;0.88;0.88;;;16.10;94.60;;;;;;5092614;28;20031;-81
2022/07/12 03:16:52;;;;;;;0.85;0.82;;;16.10;94.60;;;;;;5093142;28;20369;-81
2022/07/12 03:19:17;;;;;;;0.70;0.70;;;16.10;94.80;;;;;;5091502;28;20024;-81
2022/07/12 03:21:43;;;;;;;1.08;0.90;;;16.10;94.90;;;;;;5092531;28;20120;-81
2022/07/12 03:24:10;;;;;;;1.30;1.00;;;16.00;94.90;;;;;;5091773;28;20020;-81
2022/07/12 03:26:35;;;;;;;1.50;0.80;;;16.10;95.00;;;;;;5092464;28;20064;-81
2022/07/12 03:29:01;;;;;;;0.85;0.80;;;16.00;95.30;;;;;;5092818;28;20106;-81
2022/07/12 03:31:27;;;;;;;0.90;0.90;;;16.00;95.40;;;;;;5092566;28;20388;-81
2022/07/12 03:33:53;;;;;;;0.82;0.80;;;16.00;95.40;;;;;;5092555;28;20489;-82
2022/07/12 03:36:18;;;;;;;0.85;0.85;;;16.00;95.50;;;;;;5091158;28;20413;-83
2022/07/12 03:38:44;;;;;;;1.35;0.80;;;16.10;95.70;;;;;;5092951;28;20028;-82
2022/07/12 03:41:10;;;;;;;3.10;1.65;;;16.10;95.90;;;;;;5093207;28;20130;-82
2022/07/12 03:43:35;;;;;;;2.17;0.95;;;16.10;96.00;;;;;;5092283;28;20070;-82
2022/07/12 03:46:01;;;;;;;1.40;0.90;;;16.10;96.10;;;;;;5092905;28;20020;-82
2022/07/12 03:48:27;;;;;;;1.10;1.00;;;16.10;96.00;;;;;;5092418;28;20081;-81
2022/07/12 03:50:53;;;;;;;1.83;0.85;;;16.10;96.20;;;;;;5092964;28;20054;-82
2022/07/12 03:53:18;;;;;;;1.30;0.90;;;16.10;96.20;;;;;;5092431;28;20040;-82
2022/07/12 03:55:44;;;;;;;0.82;0.82;;;16.20;96.30;;;;;;5092720;28;20401;-82
2022/07/12 03:58:10;;;;;;;1.02;0.80;;;16.20;96.40;;;;;;5092773;28;20028;-82
2022/07/12 04:00:35;;;;;;;1.42;1.10;;;16.20;96.50;;;;;;5092050;28;20069;-82
2022/07/12 04:03:01;;;;;;;0.77;0.77;;;16.20;96.40;;;;;;5091318;28;20038;-82
2022/07/12 04:05:27;;;;;;;1.20;1.10;;;16.20;96.50;;;;;;5092279;28;20056;-81
2022/07/12 04:07:53;;;;;;;1.23;1.08;;;16.20;96.50;;;;;;5092449;28;20027;-81
2022/07/12 04:10:20;;;;;;;1.33;1.00;;;16.20;96.50;;;;;;5092079;28;20020;-81
2022/07/12 04:12:46;;;;;;;1.38;1.17;;;16.30;96.40;;;;;;5092446;28;20040;-81
2022/07/12 04:15:12;;;;;;;0.77;0.70;;;16.30;96.40;;;;;;5094138;28;20021;-82
2022/07/12 04:17:38;;;;;;;0.85;0.85;;;16.40;96.40;;;;;;5096124;28;20027;-81
2022/07/12 04:20:04;;;;;;;1.23;1.00;;;16.40;96.40;;;;;;5096042;28;20103;-82
2022/07/12 04:22:30;;;;;;;0.65;0.65;;;16.40;96.60;;;;;;5094510;28;20113;-81
2022/07/12 04:24:56;;;;;;;2.45;0.90;;;16.40;96.20;;;;;;5095967;28;20039;-82
2022/07/12 04:27:22;;;;;;;1.75;0.80;;;16.50;96.20;;;;;;5096514;28;20039;-83
2022/07/12 04:29:48;;;;;;;1.65;0.80;;;16.50;96.20;;;;;;5096382;28;20059;-82
2022/07/12 04:32:13;;;;;;;2.63;0.90;;;16.60;96.20;;;;;;5096023;28;20032;-84
2022/07/12 04:34:39;;;;;;;2.13;0.93;;;16.70;96.10;;;;;;5095174;28;20027;-82
2022/07/12 04:37:05;;;;;;;7.13;0.90;;;16.90;95.80;;;;;;5095752;28;20024;-83
2022/07/12 04:39:30;;;;;;;1.35;1.00;;;17.00;95.50;;;;;;5095229;28;20020;-81
2022/07/12 04:41:56;;;;;;;0.70;0.70;;;17.20;94.80;;;;;;5095885;28;20031;-83
2022/07/12 04:44:21;;;;;;;1.33;0.95;;;17.40;94.40;;;;;;5095446;28;20036;-83
2022/07/12 04:46:47;;;;;;;1.02;0.90;;;17.50;93.70;;;;;;5095905;28;20077;-82
2022/07/12 04:49:13;;;;;;;1.15;0.93;;;17.70;93.30;;;;;;5095731;28;20115;-82
2022/07/12 04:51:39;;;;;;;3.13;1.13;;;17.80;92.80;;;;;;5095276;28;20035;-82
2022/07/12 04:54:04;;;;;;;0.75;0.75;;;17.90;92.30;;;;;;5095405;28;20040;-82
2022/07/12 04:56:30;;;;;;;3.50;1.00;;;18.00;91.80;;;;;;5094917;28;20468;-82
2022/07/12 04:58:55;;;;;;;1.88;0.93;;;18.10;91.50;;;;;;5095614;28;20126;-83
2022/07/12 05:01:21;;;;;;;1.02;0.93;;;18.10;91.40;;;;;;5094829;28;20020;-82
2022/07/12 05:03:47;;;;;;;1.00;0.80;;;18.20;91.20;;;;;;5095941;28;20024;-82
2022/07/12 05:06:12;;;;;;;1.90;1.10;;;18.30;91.10;;;;;;5101425;28;20345;-83
2022/07/12 05:08:38;;;;;;;1.30;0.90;;;18.40;90.80;;;;;;5108520;28;20354;-82
2022/07/12 05:11:04;;;;;;;2.10;1.00;;;18.60;90.30;;;;;;5110999;28;20060;-82
2022/07/12 05:13:30;;;;;;;2.45;1.00;;;18.80;89.90;;;;;;5108859;28;20043;-84
2022/07/12 05:15:56;;;;;;;1.77;0.90;;;19.00;88.20;;;;;;5109672;28;20024;-81
2022/07/12 05:18:22;;;;;;;1.05;0.68;;;19.20;86.80;;;;;;5112756;28;20030;-80
2022/07/12 05:20:48;;;;;;;0.80;0.80;;;19.40;85.30;;;;;;5148269;27;20028;-79
2022/07/12 05:23:14;;;;;;;1.48;0.95;;;19.70;84.20;;;;;;5108351;28;20043;-81
2022/07/12 05:25:39;;;;;;;1.15;0.75;;;19.90;81.70;;;;;;5104360;28;20214;-81
2022/07/12 05:28:05;;;;;;;1.60;0.85;;;20.20;80.10;;;;;;5118500;28;20024;-82
2022/07/12 05:30:31;;;;;;;1.02;0.77;;;20.50;77.90;;;;;;5117919;28;20038;-81
2022/07/12 05:32:57;;;;;;;1.08;0.85;;;20.80;75.40;;;;;;5119082;28;20020;-82
2022/07/12 05:35:22;;;;;;;0.90;0.80;;;21.10;75.00;;;;;;5112914;28;20031;-81
2022/07/12 05:37:48;;;;;;;2.92;1.02;;;21.50;72.00;;;;;;5109789;28;20054;-82
2022/07/12 05:40:13;;;;;;;2.75;0.60;;;21.80;70.00;;;;;;5116778;28;20091;-82
2022/07/12 05:42:39;;;;;;;0.90;0.80;;;22.20;68.60;;;;;;5113365;28;20081;-82
2022/07/12 05:45:06;;;;;;;2.22;0.75;;;22.50;65.90;;;;;;5114027;28;20042;-82
2022/07/12 05:47:32;;;;;;;0.85;0.70;;;22.90;62.10;;;;;;5116575;28;20047;-82
2022/07/12 05:49:58;;;;;;;1.73;0.80;;;23.30;60.70;;;;;;5117039;28;20032;-81
2022/07/12 05:55:08;;;;;;;0.80;0.75;;;24.10;58.40;;;;;;5117793;28;20046;-82
2022/07/12 05:57:33;;;;;;;1.75;0.80;;;24.70;57.20;;;;;;5116078;28;20036;-82
2022/07/12 05:59:59;;;;;;;5.45;1.00;;;24.90;55.30;;;;;;5116831;28;20051;-81
2022/07/12 06:02:24;;;;;;;1.20;0.70;;;25.20;54.10;;;;;;5116215;28;20032;-80
2022/07/12 06:04:50;;;;;;;2.22;0.95;;;25.30;53.40;;;;;;5115728;28;20044;-81
2022/07/12 06:07:16;;;;;;;1.00;0.80;;;25.60;52.50;;;;;;5116620;28;20122;-82
2022/07/12 06:09:41;;;;;;;0.98;0.88;;;25.80;50.80;;;;;;5115056;28;20028;-81
2022/07/12 06:12:07;;;;;;;0.68;0.68;;;26.20;49.80;;;;;;5114671;28;20036;-82
2022/07/12 06:14:33;;;;;;;1.15;0.73;;;26.50;48.60;;;;;;5115588;28;20525;-82
2022/07/12 06:16:59;;;;;;;1.35;0.90;;;26.80;47.70;;;;;;5115598;28;20024;-83
2022/07/12 06:19:26;;;;;;;1.23;0.80;;;27.30;46.10;;;;;;5114913;28;20032;-81
2022/07/12 06:21:52;;;;;;;1.58;0.90;;;27.50;44.80;;;;;;5116606;28;20024;-81
2022/07/12 06:24:17;;;;;;;1.10;1.00;;;27.70;43.70;;;;;;5116119;28;20025;-82
2022/07/12 06:26:43;;;;;;;1.70;1.33;;;28.20;43.60;;;;;;5115709;28;20016;-82
2022/07/12 06:29:09;;;;;;;0.80;0.60;;;28.60;41.10;;;;;;5113068;28;20075;-81
2022/07/12 06:31:35;;;;;;;1.75;0.70;;;28.50;41.70;;;;;;5112771;28;20079;-81
2022/07/12 06:34:00;;;;;;;0.60;0.50;;;28.70;41.00;;;;;;5115524;28;20100;-81
2022/07/12 06:36:26;;;;;;;0.52;0.50;;;28.80;37.20;;;;;;5115473;28;20050;-81
2022/07/12 06:38:51;;;;;;;0.40;0.40;;;28.70;37.50;;;;;;5113902;28;20079;-81
2022/07/12 06:41:17;;;;;;;0.30;0.30;;;28.50;38.00;;;;;;5113062;28;20083;-83
2022/07/12 06:43:43;;;;;;;0.80;0.60;;;28.60;37.00;;;;;;5111580;28;20032;-77
2022/07/12 06:46:08;;;;;;;2.85;0.55;;;28.60;36.90;;;;;;5128381;27;20025;-80
2022/07/12 06:48:34;;;;;;;1.17;0.68;;;28.60;36.70;;;;;;5112262;28;20076;-83
2022/07/12 06:50:59;;;;;;;0.60;0.60;;;28.70;37.00;;;;;;5108057;28;20422;-82
2022/07/12 06:53:26;;;;;;;0.75;0.60;;;28.90;36.70;;;;;;5099055;28;20036;-82
2022/07/12 06:55:51;;;;;;;0.68;0.60;;;29.10;36.30;;;;;;5096005;28;20016;-82
2022/07/12 06:58:17;;;;;;;0.63;0.63;;;29.40;35.60;;;;;;5094268;28;20467;-83
2022/07/12 07:00:43;;;;;;;0.50;0.50;;;29.40;36.40;;;;;;5094041;28;20047;-81
2022/07/12 07:03:08;;;;;;;1.20;0.55;;;29.50;36.00;;;;;;5093693;28;20028;-82
2022/07/12 07:05:36;;;;;;;0.57;0.57;;;29.50;36.00;;;;;;5093731;28;20206;-82
2022/07/12 07:08:02;;;;;;;0.73;0.52;;;29.50;34.70;;;;;;5094866;28;20028;-83
2022/07/12 07:10:28;;;;;;;1.10;0.93;;;29.40;35.20;;;;;;5093765;28;20051;-81
2022/07/12 07:12:54;;;;;;;1.00;0.70;;;29.60;35.50;;;;;;5093926;28;20032;-82
2022/07/12 07:15:19;;;;;;;0.85;0.52;;;29.80;35.90;;;;;;5094172;28;20098;-80
2022/07/12 07:17:45;;;;;;;1.05;0.60;;;30.20;35.90;;;;;;5093754;28;20452;-82
2022/07/12 07:20:11;;;;;;;1.00;0.45;;;30.50;34.50;;;;;;5092344;28;20031;-82
2022/07/12 07:22:37;;;;;;;0.50;0.50;;;30.40;33.50;;;;;;5093568;28;20036;-82
2022/07/12 07:25:03;;;;;;;0.73;0.50;;;30.60;33.60;;;;;;5092087;28;20028;-82
2022/07/12 07:27:29;;;;;;;0.50;0.50;;;30.70;33.40;;;;;;5091938;28;20120;-80
2022/07/12 07:32:38;;;;;;;0.70;0.50;;;30.10;33.40;;;;;;5090105;28;20169;-80
2022/07/12 07:35:05;;;;;;;1.05;0.55;;;29.90;33.70;;;;;;5092287;28;20490;-82
2022/07/12 07:37:32;;;;;;;0.55;0.55;;;29.70;34.10;;;;;;5089516;28;20024;-81
2022/07/12 07:39:57;;;;;;;3.08;0.60;;;29.90;34.50;;;;;;5092489;28;20166;-82
2022/07/12 07:42:23;;;;;;;0.88;0.60;;;29.90;35.40;;;;;;5094062;28;20089;-82
2022/07/12 07:44:49;;;;;;;0.98;0.70;;;29.50;35.50;;;;;;5092460;28;20024;-82
2022/07/12 07:47:14;;;;;;;1.13;0.60;;;29.10;35.50;;;;;;5093102;28;20077;-81
2022/07/12 07:49:40;;;;;;;1.45;0.68;;;28.50;35.50;;;;;;5094954;28;20047;-80
2022/07/12 07:52:06;;;;;;;0.75;0.68;;;28.30;36.20;;;;;;5097076;28;20048;-80
2022/07/12 07:54:31;;;;;;;0.60;0.60;;;27.90;36.60;;;;;;5096245;28;20046;-79
2022/07/12 07:56:57;;;;;;;0.95;0.70;;;27.30;37.40;;;;;;5096414;28;20028;-80
2022/07/12 07:59:22;;;;;;;2.05;0.60;;;26.90;38.60;;;;;;5095337;28;20476;-80
2022/07/12 08:01:52;;;;;;;0.57;0.50;;;26.60;39.20;;;;;;5096097;28;20023;-80
2022/07/12 08:04:19;;;;;;;0.65;0.50;;;26.40;38.90;;;;;;5096093;28;20028;-81
2022/07/12 08:06:46;;;;;;;1.17;0.95;;;26.80;39.20;;;;;;5096050;28;20093;-81
2022/07/12 08:09:12;;;;;;;0.80;0.55;;;27.90;38.30;;;;;;5095493;28;20031;-81
2022/07/12 08:11:38;;;;;;;1.33;0.85;;;28.30;38.00;;;;;;5096152;28;20464;-81
2022/07/12 08:14:05;;;;;;;3.08;0.73;;;28.60;36.80;;;;;;5096294;28;20036;-80
2022/07/12 08:16:31;;;;;;;1.25;0.68;;;28.70;37.00;;;;;;5096261;28;20376;-81
2022/07/12 08:18:57;;;;;;;0.50;0.50;;;29.30;37.10;;;;;;5095843;28;20028;-81
2022/07/12 08:21:23;;;;;;;3.08;0.80;;;29.70;36.40;;;;;;5095056;28;20047;-80
2022/07/12 08:23:49;;;;;;;1.23;0.70;;;30.70;36.20;;;;;;5094416;28;20024;-81
2022/07/12 08:26:15;;;;;;;0.50;0.50;;;31.00;35.10;;;;;;5096337;28;20028;-81
2022/07/12 08:28:42;;;;;;;1.13;0.77;;;31.20;34.00;;;;;;5095564;28;20044;-80
2022/07/12 08:31:08;;;;;;;0.50;0.50;;;31.00;34.00;;;;;;5096633;28;20063;-81
2022/07/12 08:33:33;;;;;;;0.60;0.60;;;30.20;33.90;;;;;;5095862;28;20093;-81
2022/07/12 08:35:59;;;;;;;0.90;0.60;;;30.10;34.50;;;;;;5095894;28;20024;-79
2022/07/12 08:38:24;;;;;;;0.90;0.50;;;30.10;34.20;;;;;;5094371;28;20028;-81
2022/07/12 08:40:50;;;;;;;0.95;0.70;;;30.30;34.10;;;;;;5095362;28;20060;-79
2022/07/12 08:43:16;;;;;;;1.08;0.60;;;30.70;34.00;;;;;;5096079;28;20085;-81
2022/07/12 08:45:42;;;;;;;1.25;0.80;;;30.60;33.60;;;;;;5095593;28;20036;-82
2022/07/12 08:48:08;;;;;;;0.50;0.50;;;30.20;33.50;;;;;;5095632;28;20103;-80
2022/07/12 08:50:34;;;;;;;0.57;0.57;;;29.60;33.70;;;;;;5095787;28;20032;-81
2022/07/12 08:53:00;;;;;;;0.55;0.50;;;29.20;34.90;;;;;;5095150;28;20536;-82
2022/07/12 08:55:31;;;;;;;1.10;0.68;;;28.90;34.70;;;;;;5095494;28;20476;-81
2022/07/12 08:57:59;;;;;;;0.93;0.70;;;28.40;34.90;;;;;;5095265;28;20031;-81
2022/07/12 09:00:27;;;;;;;0.50;0.50;;;27.80;35.70;;;;;;5095458;28;20067;-82
2022/07/12 09:02:58;;;;;;;0.57;0.52;;;27.40;35.90;;;;;;5095083;28;20020;-81
2022/07/12 09:05:26;;;;;;;0.73;0.73;;;27.20;37.00;;;;;;5095509;28;20070;-80
2022/07/12 09:08:09;;;;;;;1.58;0.60;;;27.00;37.40;;;;;;5094530;28;20075;-80
2022/07/12 09:10:53;;;;;;;1.08;0.63;;;26.80;37.80;;;;;;5075554;28;20036;-80
2022/07/12 09:13:19;;;;;;;1.48;0.70;;;26.50;37.90;;;;;;5074898;28;20028;-80
2022/07/12 09:15:48;;;;;;;1.00;0.60;;;26.00;38.50;;;;;;5082972;28;20030;-79
2022/07/12 09:18:15;;;;;;;0.90;0.85;;;25.50;38.50;;;;;;5094887;28;20145;-80
2022/07/12 09:20:45;;;;;;;0.70;0.70;;;25.20;39.30;;;;;;5095296;28;20040;-79
2022/07/12 09:23:11;;;;;;;0.98;0.70;;;25.10;40.40;;;;;;5092541;28;20463;-80
2022/07/12 09:25:43;;;;;;;2.13;0.98;;;25.10;40.50;;;;;;5093828;28;20525;-80
2022/07/12 09:28:08;;;;;;;3.25;0.73;;;25.20;40.60;;;;;;5093538;28;20024;-80
2022/07/12 09:30:37;;;;;;;0.85;0.60;;;25.10;41.30;;;;;;5094517;28;20112;-80
2022/07/12 09:36:07;;;;;;;1.38;0.85;;;24.90;40.60;;;;;;5100512;28;20054;-80
2022/07/12 09:38:37;;;;;;;1.05;0.50;;;24.90;40.70;;;;;;5093702;28;20520;-81
2022/07/12 09:41:07;;;;;;;0.73;0.60;;;24.80;41.00;;;;;;5093422;28;20027;-81
2022/07/12 09:43:33;;;;;;;1.05;0.70;;;24.90;39.60;;;;;;5092065;28;20032;-80
2022/07/12 09:45:59;;;;;;;1.08;0.80;;;24.90;39.00;;;;;;5094377;28;20031;-80
2022/07/12 09:48:28;;;;;;;1.08;0.60;;;24.90;39.50;;;;;;5093122;28;20472;-80
2022/07/12 09:50:56;;;;;;;1.08;0.60;;;25.00;39.50;;;;;;5093613;28;20039;-81
2022/07/12 09:53:29;;;;;;;0.70;0.70;;;25.00;38.60;;;;;;5093683;28;20028;-81
2022/07/12 09:55:55;;;;;;;0.40;0.40;;;25.00;39.10;;;;;;5093799;28;20028;-80
2022/07/12 09:58:30;;;;;;;1.02;0.50;;;25.00;40.20;;;;;;5092696;28;20077;-80
2022/07/12 10:00:59;;;;;;;0.70;0.55;;;25.00;39.60;;;;;;5093225;28;20040;-81
2022/07/12 10:03:29;;;;;;;1.75;0.60;;;24.90;39.50;;;;;;5093877;28;20422;-80
2022/07/12 10:05:55;;;;;;;0.75;0.50;;;24.90;39.50;;;;;;5093292;28;20020;-81
2022/07/12 10:08:21;;;;;;;0.73;0.55;;;24.90;39.30;;;;;;5093705;28;20027;-81
2022/07/12 10:10:48;;;;;;;1.88;0.80;;;24.90;38.80;;;;;;5091611;28;20361;-81
2022/07/12 10:13:15;;;;;;;0.55;0.55;;;24.90;39.50;;;;;;5092781;28;20028;-81
2022/07/12 10:15:43;;;;;;;0.65;0.60;;;24.90;40.70;;;;;;5101095;28;20043;-80
2022/07/12 10:18:16;;;;;;;1.20;0.45;;;24.90;40.60;;;;;;5100934;28;20074;-81
2022/07/12 10:20:43;;;;;;;0.88;0.70;;;24.90;39.20;;;;;;5100803;28;20106;-80
2022/07/12 10:23:20;;;;;;;1.38;0.50;;;24.90;39.50;;;;;;5102758;28;20062;-81
2022/07/12 10:25:50;;;;;;;1.85;0.68;;;25.00;38.40;;;;;;5097894;28;20486;-80
2022/07/12 10:28:15;;;;;;;0.98;0.70;;;25.00;38.40;;;;;;5101745;28;20019;-80
2022/07/12 10:30:47;;;;;;;2.65;0.65;;;25.00;38.60;;;;;;5101492;28;20452;-79
2022/07/12 10:33:16;;;;;;;1.15;0.70;;;24.90;37.80;;;;;;5089708;28;20027;-80
2022/07/12 10:36:05;;;;;;;0.63;0.63;;;25.00;38.10;;;;;;5090472;28;20123;-78
2022/07/12 10:38:32;;;;;;;1.85;0.73;;;25.10;38.20;;;;;;5092205;28;20060;-80
2022/07/12 10:41:15;;;;;;;0.55;0.55;;;25.20;38.20;;;;;;5092035;28;20031;-80
2022/07/12 10:46:25;;;;;;;1.25;0.60;;;25.20;37.90;;;;;;5089178;28;20104;-81
2022/07/12 10:48:51;;;;;;;2.20;0.68;;;25.20;38.20;;;;;;5091399;28;20464;-81
2022/07/12 10:51:22;;;;;;;2.50;0.60;;;25.10;38.10;;;;;;5092136;28;20012;-80
2022/07/12 10:53:50;;;;;;;2.33;0.65;;;25.10;37.80;;;;;;5090960;28;20499;-79
2022/07/12 10:56:25;;;;;;;0.50;0.50;;;25.10;37.20;;;;;;5091807;28;20060;-80
2022/07/12 10:58:55;;;;;;;1.27;0.50;;;25.00;37.50;;;;;;5091649;28;20024;-81
2022/07/12 11:01:30;;;;;;;1.10;0.70;;;25.00;37.90;;;;;;5091565;28;20032;-83
2022/07/12 11:04:03;;;;;;;0.50;0.50;;;25.00;37.30;;;;;;5091022;28;20032;-79
2022/07/12 11:06:28;;;;;;;0.40;0.40;;;25.00;37.80;;;;;;5089376;28;20075;-81
2022/07/12 11:08:55;;;;;;;1.42;0.82;;;24.90;37.50;;;;;;5091137;28;20468;-80
2022/07/12 11:11:22;;;;;;;1.45;0.68;;;24.90;37.70;;;;;;5091440;28;20028;-80
2022/07/12 11:13:48;;;;;;;0.50;0.50;;;24.90;38.20;;;;;;5090736;28;20035;-78
2022/07/12 11:16:14;;;;;;;0.40;0.40;;;24.80;38.70;;;;;;5090197;28;20016;-81
2022/07/12 11:18:40;;;;;;;0.77;0.70;;;24.90;38.80;;;;;;5091341;28;20460;-79
2022/07/12 11:21:06;;;;;;;2.33;0.80;;;24.70;39.00;;;;;;5090841;28;20028;-79
2022/07/12 11:23:32;;;;;;;0.60;0.50;;;24.70;39.30;;;;;;5092074;28;20036;-80
2022/07/12 11:26:00;;;;;;;2.00;0.40;;;24.70;39.20;;;;;;5095222;28;20125;-80
2022/07/12 11:28:30;;;;;;;0.63;0.63;;;24.50;39.50;;;;;;5093819;28;20048;-80
2022/07/12 11:31:07;;;;;;;0.73;0.57;;;24.50;39.50;;;;;;5096363;28;20020;-80
2022/07/12 11:33:34;;;;;;;0.70;0.70;;;24.30;39.60;;;;;;5095751;28;20046;-78
2022/07/12 11:36:03;;;;;;;1.00;0.70;;;24.30;39.80;;;;;;5094907;28;20387;-78
2022/07/12 11:38:30;;;;;;;1.02;0.50;;;24.20;40.00;;;;;;5095310;28;20023;-79
2022/07/12 11:41:01;;;;;;;0.60;0.60;;;24.10;39.90;;;;;;5093806;28;20081;-79
2022/07/12 11:43:27;;;;;;;;;;;24.00;40.20;;;;;;5095146;28;20453;-79
2022/07/12 11:45:54;;;;;;;1.15;0.65;;;24.00;39.90;;;;;;5096186;28;19903;-78
2022/07/12 11:48:21;;;;;;;1.02;0.70;;;23.80;40.00;;;;;;5096379;28;20032;-78
2022/07/12 11:50:47;;;;;;;4.35;0.90;;;23.80;40.50;;;;;;5095938;28;20031;-78
2022/07/12 11:53:26;;;;;;;0.60;0.60;;;23.80;40.50;;;;;;5096446;28;20032;-80
2022/07/12 11:55:57;;;;;;;0.52;0.52;;;23.70;40.50;;;;;;5094821;28;20419;-78
2022/07/12 11:58:24;;;;;;;0.52;0.43;;;23.70;40.70;;;;;;5096563;28;20110;-79
2022/07/12 12:00:52;;;;;;;0.95;0.60;;;23.70;40.60;;;;;;5094152;28;20496;-78
2022/07/12 12:03:19;;;;;;;0.68;0.60;;;23.70;40.60;;;;;;5093783;28;20077;-79
2022/07/12 12:05:47;;;;;;;0.60;0.60;;;23.70;40.20;;;;;;5094124;28;20024;-79
2022/07/12 12:08:14;;;;;;;0.60;0.60;;;23.80;40.50;;;;;;5094888;28;20042;-78
2022/07/12 12:10:41;;;;;;;1.83;0.63;;;23.80;40.80;;;;;;5095294;28;20028;-77
2022/07/12 12:13:18;;;;;;;0.80;0.60;;;23.90;40.40;;;;;;5095501;28;20024;-79
2022/07/12 12:15:58;;;;;;;1.80;0.80;;;24.10;40.00;;;;;;5095674;28;20025;-78
2022/07/12 12:18:41;;;;;;;0.50;0.50;;;24.20;40.30;;;;;;5095371;28;20103;-79
2022/07/12 12:21:09;;;;;;;0.50;0.50;;;24.30;40.80;;;;;;5095220;28;20369;-78
2022/07/12 12:23:36;;;;;;;0.90;0.70;;;24.30;40.70;;;;;;5095719;28;20423;-80
2022/07/12 12:26:21;;;;;;;1.00;0.73;;;24.40;40.20;;;;;;5095487;28;20020;-78
2022/07/12 12:28:54;;;;;;;0.63;0.50;;;24.40;40.00;;;;;;5095234;28;20050;-78
2022/07/12 12:31:21;;;;;;;0.47;0.43;;;24.30;39.70;;;;;;5095668;28;20027;-79
2022/07/12 12:33:52;;;;;;;0.50;0.50;;;24.30;39.80;;;;;;5094911;28;20036;-78
2022/07/12 12:36:25;;;;;;;1.52;0.70;;;24.20;40.20;;;;;;5095346;28;20034;-80
2022/07/12 12:38:53;;;;;;;0.93;0.68;;;24.20;40.40;;;;;;5094769;28;20028;-78
2022/07/12 12:41:22;;;;;;;0.80;0.63;;;24.10;40.00;;;;;;5095392;28;20032;-79
2022/07/12 12:43:48;;;;;;;1.88;0.70;;;24.00;39.90;;;;;;5094830;28;20540;-78
2022/07/12 12:46:14;;;;;;;1.48;0.60;;;24.00;40.10;;;;;;5095457;28;20023;-80
2022/07/12 12:48:47;;;;;;;1.05;0.63;;;23.90;39.90;;;;;;5095687;28;20423;-79
2022/07/12 12:51:12;;;;;;;0.50;0.50;;;23.90;40.20;;;;;;5095159;28;20103;-78
2022/07/12 12:53:39;;;;;;;1.05;0.70;;;23.80;40.40;;;;;;5095271;28;20115;-79
2022/07/12 12:56:11;;;;;;;0.50;0.50;;;23.80;40.80;;;;;;5094671;28;20412;-78
2022/07/12 12:58:38;;;;;;;1.27;0.57;;;23.70;40.80;;;;;;5095430;28;20036;-79
2022/07/12 13:01:06;;;;;;;1.55;0.57;;;23.70;40.90;;;;;;5093168;28;20465;-75